createdAt,value
2023-04-08T00:02:21.020Z,101208.25
2023-04-08T00:04:47.435Z,101211.50
2023-04-08T00:07:13.775Z,101214.00
2023-04-08T00:09:40.078Z,101213.63
2023-04-08T00:12:06.661Z,101209.88
2023-04-08T00:14:33.036Z,101214.78
2023-04-08T00:16:59.343Z,101212.94
2023-04-08T00:19:25.736Z,101212.72
2023-04-08T00:21:52.077Z,101217.03
2023-04-08T00:24:19.395Z,101218.97
2023-04-08T00:26:45.699Z,101228.28
2023-04-08T00:29:12.014Z,101219.00
2023-04-08T00:31:38.325Z,101219.50
2023-04-08T00:34:04.647Z,101216.38
2023-04-08T00:36:30.946Z,101221.28
2023-04-08T00:38:57.256Z,101222.91
2023-04-08T00:41:23.623Z,101218.00
2023-04-08T00:43:49.938Z,101227.00
2023-04-08T00:46:16.400Z,101221.69
2023-04-08T00:48:42.769Z,101221.69
2023-04-08T00:51:09.127Z,101222.66
2023-04-08T00:53:35.436Z,101218.44
2023-04-08T00:56:01.738Z,101216.06
2023-04-08T00:58:29.321Z,101219.19
2023-04-08T01:01:05.623Z,101223.22
2023-04-08T01:03:47.075Z,101220.97
2023-04-08T01:06:19.974Z,101223.34
2023-04-08T01:08:48.064Z,101221.59
2023-04-08T01:11:15.031Z,101217.78
2023-04-08T01:13:44.513Z,101222.63
2023-04-08T01:16:14.063Z,101220.97
2023-04-08T01:18:42.116Z,101221.94
2023-04-08T01:21:09.684Z,101220.63
2023-04-08T01:24:10.835Z,101223.25
2023-04-08T01:26:38.351Z,101216.91
2023-04-08T01:29:07.406Z,101218.78
2023-04-08T01:31:36.654Z,101217.06
2023-04-08T01:34:04.940Z,101222.84
2023-04-08T01:36:32.610Z,101232.56
2023-04-08T01:39:01.925Z,101226.72
2023-04-08T01:41:29.747Z,101234.16
2023-04-08T01:43:57.551Z,101234.47
2023-04-08T01:46:24.298Z,101234.25
2023-04-08T01:48:52.110Z,101230.38
2023-04-08T01:51:19.664Z,101234.16
2023-04-08T01:53:46.029Z,101227.47
2023-04-08T01:56:15.555Z,101232.03
2023-04-08T01:58:46.310Z,101225.66
2023-04-08T02:01:16.977Z,101233.16
2023-04-08T02:03:45.039Z,101228.75
2023-04-08T02:06:11.479Z,101224.59
2023-04-08T02:08:37.775Z,101232.91
2023-04-08T02:11:04.161Z,101223.38
2023-04-08T02:13:32.145Z,101233.47
2023-04-08T02:16:16.098Z,101235.53
2023-04-08T02:18:47.992Z,101237.16
2023-04-08T02:21:15.769Z,101235.22
2023-04-08T02:23:48.556Z,101230.38
2023-04-08T02:26:16.432Z,101244.75
2023-04-08T02:28:43.209Z,101240.66
2023-04-08T02:31:11.752Z,101235.03
2023-04-08T02:33:39.198Z,101243.13
2023-04-08T02:36:06.751Z,101248.72
2023-04-08T02:38:33.088Z,101246.41
2023-04-08T02:40:59.420Z,101252.22
2023-04-08T02:43:26.077Z,101255.94
2023-04-08T02:45:52.621Z,101254.81
2023-04-08T02:48:18.939Z,101247.38
2023-04-08T02:50:45.244Z,101245.97
2023-04-08T02:53:11.561Z,101255.53
2023-04-08T02:55:37.991Z,101252.13
2023-04-08T02:58:04.320Z,101257.28
2023-04-08T03:00:30.670Z,101257.66
2023-04-08T03:02:57.230Z,101260.41
2023-04-08T03:05:23.985Z,101258.13
2023-04-08T03:07:50.278Z,101258.13
2023-04-08T03:10:16.647Z,101261.38
2023-04-08T03:12:43.085Z,101261.31
2023-04-08T03:15:09.724Z,101259.53
2023-04-08T03:17:36.097Z,101254.88
2023-04-08T03:20:02.905Z,101257.06
2023-04-08T03:22:29.230Z,101250.06
2023-04-08T03:24:55.524Z,101245.59
2023-04-08T03:27:21.837Z,101258.84
2023-04-08T03:29:48.141Z,101253.31
2023-04-08T03:32:14.566Z,101263.66
2023-04-08T03:34:41.112Z,101265.19
2023-04-08T03:37:07.598Z,101271.59
2023-04-08T03:39:33.932Z,101274.25
2023-04-08T03:42:00.290Z,101272.25
2023-04-08T03:44:27.186Z,101270.81
2023-04-08T03:46:53.486Z,101272.53
2023-04-08T03:49:19.818Z,101271.06
2023-04-08T03:51:46.156Z,101268.44
2023-04-08T03:54:12.468Z,101275.13
2023-04-08T03:56:38.790Z,101277.06
2023-04-08T03:59:05.094Z,101273.00
2023-04-08T04:01:31.451Z,101270.81
2023-04-08T04:03:58.619Z,101266.00
2023-04-08T04:06:25.122Z,101271.78
2023-04-08T04:08:54.042Z,101270.00
2023-04-08T04:11:20.366Z,101276.59
2023-04-08T04:13:46.665Z,101277.38
2023-04-08T04:16:13.033Z,101277.22
2023-04-08T04:18:39.400Z,101278.50
2023-04-08T04:21:06.604Z,101269.66
2023-04-08T04:23:33.048Z,101275.31
2023-04-08T04:25:59.437Z,101279.22
2023-04-08T04:28:25.732Z,101281.38
2023-04-08T04:30:52.385Z,101283.44
2023-04-08T04:33:19.607Z,101285.56
2023-04-08T04:35:45.935Z,101281.81
2023-04-08T04:38:12.262Z,101288.00
2023-04-08T04:40:39.389Z,101283.44
2023-04-08T04:43:05.728Z,101278.41
2023-04-08T04:45:32.128Z,101277.44
2023-04-08T04:47:58.556Z,101291.75
2023-04-08T04:50:24.947Z,101303.56
2023-04-08T04:52:51.292Z,101294.53
2023-04-08T04:55:17.621Z,101290.97
2023-04-08T04:57:43.950Z,101295.94
2023-04-08T05:00:10.794Z,101299.53
2023-04-08T05:02:37.307Z,101301.19
2023-04-08T05:05:03.961Z,101301.47
2023-04-08T05:07:30.318Z,101295.00
2023-04-08T05:09:56.612Z,101292.44
2023-04-08T05:12:22.968Z,101305.72
2023-04-08T05:14:49.275Z,101308.78
2023-04-08T05:17:15.569Z,101313.84
2023-04-08T05:19:41.884Z,101302.25
2023-04-08T05:22:08.194Z,101316.38
2023-04-08T05:24:34.524Z,101319.22
2023-04-08T05:27:00.819Z,101322.38
2023-04-08T05:29:27.341Z,101314.41
2023-04-08T05:31:53.788Z,101318.50
2023-04-08T05:34:20.143Z,101324.56
2023-04-08T05:36:46.444Z,101324.22
2023-04-08T05:39:12.730Z,101337.94
2023-04-08T05:41:39.046Z,101319.53
2023-04-08T05:44:05.423Z,101327.19
2023-04-08T05:46:31.737Z,101328.69
2023-04-08T05:48:58.069Z,101327.69
2023-04-08T05:51:24.398Z,101336.69
2023-04-08T05:53:50.686Z,101332.56
2023-04-08T05:56:16.990Z,101331.06
2023-04-08T05:58:43.303Z,101337.25
2023-04-08T06:01:09.647Z,101341.25
2023-04-08T06:03:36.151Z,101341.72
2023-04-08T06:06:02.569Z,101348.97
2023-04-08T06:08:28.881Z,101361.19
2023-04-08T06:10:55.227Z,101370.44
2023-04-08T06:13:21.544Z,101364.25
2023-04-08T06:15:48.198Z,101366.13
2023-04-08T06:18:16.448Z,101368.09
2023-04-08T06:20:42.772Z,101367.03
2023-04-08T06:23:09.094Z,101361.03
2023-04-08T06:25:35.425Z,101360.69
2023-04-08T06:28:01.774Z,101371.59
2023-04-08T06:30:28.115Z,101378.59
2023-04-08T06:32:54.498Z,101373.31
2023-04-08T06:35:20.866Z,101391.22
2023-04-08T06:37:47.217Z,101383.31
2023-04-08T06:40:13.553Z,101398.47
2023-04-08T06:42:39.855Z,101392.75
2023-04-08T06:45:06.485Z,101397.41
2023-04-08T06:47:32.839Z,101397.09
2023-04-08T06:49:59.200Z,101399.94
2023-04-08T06:52:25.531Z,101399.56
2023-04-08T06:54:51.820Z,101399.22
2023-04-08T06:57:18.294Z,101401.66
2023-04-08T06:59:44.617Z,101405.59
2023-04-08T07:02:10.960Z,101413.22
2023-04-08T07:04:37.326Z,101406.34
2023-04-08T07:07:03.627Z,101414.19
2023-04-08T07:09:29.973Z,101418.44
2023-04-08T07:11:56.274Z,101418.19
2023-04-08T07:14:22.596Z,101412.16
2023-04-08T07:16:48.980Z,101421.47
2023-04-08T07:19:15.295Z,101427.09
2023-04-08T07:21:41.612Z,101425.84
2023-04-08T07:24:07.932Z,101429.34
2023-04-08T07:26:34.224Z,101425.38
2023-04-08T07:29:00.537Z,101429.13
2023-04-08T07:31:26.883Z,101428.88
2023-04-08T07:33:53.247Z,101437.56
2023-04-08T07:36:19.593Z,101431.78
2023-04-08T07:38:45.973Z,101437.06
2023-04-08T07:41:12.368Z,101438.09
2023-04-08T07:43:38.689Z,101448.25
2023-04-08T07:46:06.173Z,101448.38
2023-04-08T07:48:33.754Z,101448.25
2023-04-08T07:51:18.007Z,101447.94
2023-04-08T07:53:47.203Z,101453.97
2023-04-08T07:56:15.428Z,101456.31
2023-04-08T07:58:42.341Z,101451.94
2023-04-08T08:01:22.979Z,101456.97
2023-04-08T08:03:51.121Z,101456.19
2023-04-08T08:06:17.919Z,101459.19
2023-04-08T08:08:44.338Z,101459.28
2023-04-08T08:11:10.656Z,101455.94
2023-04-08T08:13:37.015Z,101458.44
2023-04-08T08:16:03.439Z,101455.69
2023-04-08T08:18:29.782Z,101452.53
2023-04-08T08:20:56.158Z,101459.94
2023-04-08T08:23:22.505Z,101464.09
2023-04-08T08:25:48.845Z,101466.53
2023-04-08T08:28:15.177Z,101463.81
2023-04-08T08:30:41.523Z,101467.94
2023-04-08T08:33:08.049Z,101470.53
2023-04-08T08:35:34.474Z,101477.00
2023-04-08T08:38:00.858Z,101476.25
2023-04-08T08:40:27.227Z,101475.72
2023-04-08T08:42:53.612Z,101476.13
2023-04-08T08:45:20.536Z,101475.31
2023-04-08T08:47:48.986Z,101477.69
2023-04-08T08:50:16.835Z,101470.13
2023-04-08T08:52:52.523Z,101476.00
2023-04-08T08:55:36.370Z,101472.59
2023-04-08T08:58:06.672Z,101479.56
2023-04-08T09:00:37.549Z,101478.06
2023-04-08T09:03:15.903Z,101481.97
2023-04-08T09:05:50.200Z,101480.31
2023-04-08T09:08:28.402Z,101479.31
2023-04-08T09:10:55.907Z,101478.84
2023-04-08T09:13:23.525Z,101482.97
2023-04-08T09:16:01.995Z,101483.06
2023-04-08T09:18:28.395Z,101486.19
2023-04-08T09:20:54.801Z,101488.13
2023-04-08T09:23:21.160Z,101491.03
2023-04-08T09:25:48.104Z,101488.69
2023-04-08T09:28:20.929Z,101487.59
2023-04-08T09:30:47.526Z,101490.78
2023-04-08T09:33:13.888Z,101494.63
2023-04-08T09:35:40.233Z,101486.50
2023-04-08T09:38:06.582Z,101490.59
2023-04-08T09:40:34.752Z,101484.13
2023-04-08T09:43:05.029Z,101485.41
2023-04-08T09:45:34.048Z,101491.72
2023-04-08T09:48:15.782Z,101495.22
2023-04-08T09:50:50.726Z,101503.06
2023-04-08T09:53:26.440Z,101503.59
2023-04-08T09:55:56.856Z,101495.94
2023-04-08T09:58:29.158Z,101509.72
2023-04-08T10:00:55.772Z,101521.44
2023-04-08T10:03:45.568Z,101519.13
2023-04-08T10:06:12.407Z,101525.50
2023-04-08T10:08:39.112Z,101528.38
2023-04-08T10:11:05.503Z,101524.41
2023-04-08T10:13:33.771Z,101524.31
2023-04-08T10:16:22.146Z,101523.56
2023-04-08T10:18:48.799Z,101530.78
2023-04-08T10:21:33.839Z,101537.59
2023-04-08T10:24:01.759Z,101534.38
2023-04-08T10:26:54.421Z,101537.78
2023-04-08T10:29:26.456Z,101538.28
2023-04-08T10:31:52.914Z,101534.88
2023-04-08T10:34:21.125Z,101537.06
2023-04-08T10:36:48.284Z,101536.31
2023-04-08T10:39:15.141Z,101540.06
2023-04-08T10:41:42.547Z,101538.66
2023-04-08T10:44:27.126Z,101535.16
2023-04-08T10:46:54.566Z,101526.81
2023-04-08T10:49:21.060Z,101532.03
2023-04-08T10:51:47.505Z,101533.69
2023-04-08T10:54:18.166Z,101537.31
2023-04-08T10:56:49.357Z,101531.69
2023-04-08T10:59:17.771Z,101530.50
2023-04-08T11:01:46.804Z,101523.78
2023-04-08T11:04:18.057Z,101530.81
2023-04-08T11:06:45.711Z,101528.66
2023-04-08T11:09:12.332Z,101519.56
2023-04-08T11:11:39.164Z,101527.66
2023-04-08T11:14:06.461Z,101523.78
2023-04-08T11:16:33.946Z,101528.03
2023-04-08T11:19:02.492Z,101534.75
2023-04-08T11:21:28.916Z,101530.25
2023-04-08T11:23:55.684Z,101533.50
2023-04-08T11:26:22.589Z,101528.31
2023-04-08T11:28:49.143Z,101530.63
2023-04-08T11:31:15.682Z,101529.75
2023-04-08T11:33:49.391Z,101535.06
2023-04-08T11:36:18.002Z,101533.88
2023-04-08T11:38:44.464Z,101532.88
2023-04-08T11:41:11.069Z,101535.03
2023-04-08T11:43:37.911Z,101523.69
2023-04-08T11:46:11.040Z,101525.38
2023-04-08T11:48:37.519Z,101528.28
2023-04-08T11:51:08.161Z,101529.69
2023-04-08T11:53:35.313Z,101520.19
2023-04-08T11:56:19.270Z,101517.50
2023-04-08T11:58:45.683Z,101514.09
2023-04-08T12:01:12.342Z,101518.53
2023-04-08T12:03:38.952Z,101524.97
2023-04-08T12:06:05.509Z,101520.13
2023-04-08T12:08:31.819Z,101526.72
2023-04-08T12:11:03.736Z,101527.25
2023-04-08T12:13:39.431Z,101524.53
2023-04-08T12:16:06.022Z,101522.75
2023-04-08T12:18:32.309Z,101529.50
2023-04-08T12:20:58.632Z,101524.16
2023-04-08T12:23:25.013Z,101534.03
2023-04-08T12:25:51.331Z,101529.84
2023-04-08T12:28:17.634Z,101530.53
2023-04-08T12:30:43.934Z,101527.41
2023-04-08T12:33:10.332Z,101526.66
2023-04-08T12:35:37.787Z,101520.94
2023-04-08T12:38:04.102Z,101527.72
2023-04-08T12:40:30.422Z,101530.47
2023-04-08T12:42:56.726Z,101528.50
2023-04-08T12:45:23.129Z,101528.34
2023-04-08T12:47:49.494Z,101527.25
2023-04-08T12:50:15.894Z,101534.94
2023-04-08T12:52:42.198Z,101528.56
2023-04-08T12:55:08.983Z,101534.13
2023-04-08T12:57:35.641Z,101538.72
2023-04-08T13:00:02.053Z,101547.28
2023-04-08T13:02:28.489Z,101547.78
2023-04-08T13:04:54.880Z,101548.22
2023-04-08T13:07:21.414Z,101542.13
2023-04-08T13:09:47.708Z,101544.00
2023-04-08T13:12:14.021Z,101535.41
2023-04-08T13:14:40.327Z,101533.38
2023-04-08T13:17:06.628Z,101541.34
2023-04-08T13:19:32.934Z,101537.91
2023-04-08T13:21:59.276Z,101536.66
2023-04-08T13:24:25.624Z,101542.44
2023-04-08T13:26:51.917Z,101538.19
2023-04-08T13:29:18.213Z,101544.91
2023-04-08T13:31:44.547Z,101540.97
2023-04-08T13:34:10.874Z,101539.28
2023-04-08T13:36:37.166Z,101537.38
2023-04-08T13:39:03.566Z,101528.59
2023-04-08T13:41:29.853Z,101538.97
2023-04-08T13:43:56.185Z,101524.69
2023-04-08T13:46:22.556Z,101531.03
2023-04-08T13:48:48.963Z,101530.44
2023-04-08T13:51:15.372Z,101536.78
2023-04-08T13:53:41.682Z,101527.38
2023-04-08T13:56:08.101Z,101522.19
2023-04-08T13:58:34.409Z,101522.19
2023-04-08T14:01:00.802Z,101523.16
2023-04-08T14:03:27.162Z,101525.66
2023-04-08T14:05:53.557Z,101524.25
2023-04-08T14:08:19.857Z,101519.75
2023-04-08T14:10:46.154Z,101520.56
2023-04-08T14:13:12.428Z,101518.69
2023-04-08T14:15:38.737Z,101522.75
2023-04-08T14:18:05.083Z,101522.91
2023-04-08T14:20:31.437Z,101527.53
2023-04-08T14:22:57.752Z,101527.81
2023-04-08T14:25:24.405Z,101522.50
2023-04-08T14:27:58.133Z,101526.25
2023-04-08T14:30:25.348Z,101534.84
2023-04-08T14:32:51.736Z,101530.00
2023-04-08T14:35:18.450Z,101527.06
2023-04-08T14:37:44.755Z,101525.78
2023-04-08T14:40:11.529Z,101526.91
2023-04-08T14:42:37.925Z,101532.38
2023-04-08T14:45:04.457Z,101532.53
2023-04-08T14:47:30.793Z,101531.97
2023-04-08T14:49:57.157Z,101538.47
2023-04-08T14:52:23.457Z,101539.09
2023-04-08T14:54:49.740Z,101540.25
2023-04-08T14:57:16.073Z,101535.66
2023-04-08T14:59:42.374Z,101532.47
2023-04-08T15:02:08.827Z,101536.34
2023-04-08T15:04:35.344Z,101533.28
2023-04-08T15:07:01.743Z,101531.75
2023-04-08T15:09:28.068Z,101530.50
2023-04-08T15:11:54.381Z,101529.94
2023-04-08T15:14:20.674Z,101536.13
2023-04-08T15:16:47.072Z,101532.75
2023-04-08T15:19:13.391Z,101530.72
2023-04-08T15:21:39.708Z,101534.09
2023-04-08T15:24:06.095Z,101532.66
2023-04-08T15:26:32.407Z,101530.31
2023-04-08T15:28:58.700Z,101532.78
2023-04-08T15:31:25.095Z,101523.88
2023-04-08T15:33:51.676Z,101523.78
2023-04-08T15:36:18.191Z,101532.56
2023-04-08T15:38:44.693Z,101528.38
2023-04-08T15:41:18.470Z,101533.16
2023-04-08T15:43:45.926Z,101533.56
2023-04-08T15:46:17.609Z,101531.31
2023-04-08T15:48:44.100Z,101532.34
2023-04-08T15:51:10.684Z,101541.41
2023-04-08T15:53:36.983Z,101538.75
2023-04-08T15:56:03.300Z,101541.53
2023-04-08T15:58:29.898Z,101544.75
2023-04-08T16:00:56.198Z,101542.78
2023-04-08T16:03:22.697Z,101546.25
2023-04-08T16:05:49.152Z,101549.47
2023-04-08T16:08:15.565Z,101548.59
2023-04-08T16:10:42.340Z,101548.22
2023-04-08T16:13:08.642Z,101541.91
2023-04-08T16:15:35.356Z,101540.47
2023-04-08T16:18:03.100Z,101543.22
2023-04-08T16:20:29.422Z,101549.59
2023-04-08T16:22:56.134Z,101549.91
2023-04-08T16:25:22.625Z,101545.81
2023-04-08T16:27:48.939Z,101559.16
2023-04-08T16:30:15.463Z,101560.84
2023-04-08T16:32:41.774Z,101562.28
2023-04-08T16:35:08.573Z,101553.09
2023-04-08T16:37:34.869Z,101557.41
2023-04-08T16:40:01.254Z,101562.69
2023-04-08T16:42:27.614Z,101560.03
2023-04-08T16:44:57.277Z,101573.56
2023-04-08T16:47:23.802Z,101568.97
2023-04-08T16:49:51.295Z,101564.78
2023-04-08T16:52:17.601Z,101578.59
2023-04-08T16:54:44.306Z,101575.63
2023-04-08T16:57:10.617Z,101570.97
2023-04-08T16:59:36.978Z,101567.66
2023-04-08T17:02:03.515Z,101578.91
2023-04-08T17:04:29.981Z,101576.34
2023-04-08T17:06:56.412Z,101581.66
2023-04-08T17:09:23.016Z,101583.00
2023-04-08T17:11:49.413Z,101588.63
2023-04-08T17:14:15.738Z,101582.16
2023-04-08T17:16:42.073Z,101585.06
2023-04-08T17:19:08.452Z,101595.53
2023-04-08T17:21:34.744Z,101591.66
2023-04-08T17:24:01.075Z,101586.09
2023-04-08T17:26:27.417Z,101591.13
2023-04-08T17:28:53.729Z,101589.59
2023-04-08T17:31:20.067Z,101595.75
2023-04-08T17:33:46.390Z,101589.50
2023-04-08T17:36:12.851Z,101594.03
2023-04-08T17:38:39.174Z,101595.31
2023-04-08T17:41:05.829Z,101589.97
2023-04-08T17:43:32.137Z,101586.97
2023-04-08T17:46:01.850Z,101591.94
2023-04-08T17:48:28.402Z,101593.31
2023-04-08T17:51:02.096Z,101594.53
2023-04-08T17:53:28.509Z,101592.69
2023-04-08T17:55:54.829Z,101600.69
2023-04-08T17:58:22.276Z,101600.19
2023-04-08T18:00:48.710Z,101600.44
2023-04-08T18:03:15.204Z,101609.38
2023-04-08T18:05:42.024Z,101600.59
2023-04-08T18:08:08.714Z,101602.16
2023-04-08T18:10:37.041Z,101603.94
2023-04-08T18:15:35.306Z,101612.03
2023-04-08T18:18:01.748Z,101619.00
2023-04-08T18:20:28.084Z,101623.34
2023-04-08T18:22:54.460Z,101627.03
2023-04-08T18:25:20.777Z,101632.94
2023-04-08T18:27:47.090Z,101640.50
2023-04-08T18:30:13.519Z,101637.22
2023-04-08T18:32:39.854Z,101636.09
2023-04-08T18:35:06.603Z,101636.88
2023-04-08T18:37:32.920Z,101635.06
2023-04-08T18:39:59.230Z,101637.94
2023-04-08T18:42:25.525Z,101634.97
2023-04-08T18:44:51.829Z,101647.97
2023-04-08T18:47:18.131Z,101649.66
2023-04-08T18:49:44.428Z,101644.28
2023-04-08T18:52:10.761Z,101652.63
2023-04-08T18:54:37.071Z,101654.38
2023-04-08T18:57:03.407Z,101663.63
2023-04-08T18:59:29.744Z,101649.22
2023-04-08T19:01:56.317Z,101657.19
2023-04-08T19:04:22.948Z,101661.19
2023-04-08T19:06:49.315Z,101668.72
2023-04-08T19:09:15.615Z,101671.19
2023-04-08T19:11:41.931Z,101670.28
2023-04-08T19:14:08.254Z,101660.38
2023-04-08T19:16:34.809Z,101660.28
2023-04-08T19:19:01.166Z,101665.19
2023-04-08T19:21:27.542Z,101663.97
2023-04-08T19:23:54.084Z,101669.06
2023-04-08T19:26:20.430Z,101666.81
2023-04-08T19:28:46.759Z,101671.50
2023-04-08T19:31:17.515Z,101664.78
2023-04-08T19:33:44.340Z,101669.78
2023-04-08T19:36:11.365Z,101673.31
2023-04-08T19:38:38.087Z,101680.19
2023-04-08T19:41:04.648Z,101681.69
2023-04-08T19:43:30.959Z,101680.53
2023-04-08T19:45:57.812Z,101682.19
2023-04-08T19:48:24.739Z,101683.63
2023-04-08T19:50:52.107Z,101684.28
2023-04-08T19:53:18.635Z,101689.84
2023-04-08T19:55:44.939Z,101682.50
2023-04-08T19:58:11.416Z,101683.22
2023-04-08T20:00:37.728Z,101675.97
2023-04-08T20:03:05.256Z,101680.78
2023-04-08T20:05:31.884Z,101681.19
2023-04-08T20:07:58.204Z,101680.38
2023-04-08T20:10:24.510Z,101685.53
2023-04-08T20:12:52.932Z,101673.75
2023-04-08T20:15:24.710Z,101679.22
2023-04-08T20:17:51.835Z,101674.47
2023-04-08T20:20:18.296Z,101676.00
2023-04-08T20:22:44.630Z,101674.13
2023-04-08T20:25:10.940Z,101674.97
2023-04-08T20:27:37.249Z,101674.03
2023-04-08T20:30:03.809Z,101679.00
2023-04-08T20:32:30.114Z,101681.75
2023-04-08T20:34:56.428Z,101682.56
2023-04-08T20:37:22.743Z,101680.47
2023-04-08T20:39:49.055Z,101681.19
2023-04-08T20:42:15.355Z,101690.09
2023-04-08T20:44:41.686Z,101691.28
2023-04-08T20:47:08.059Z,101687.31
2023-04-08T20:49:34.493Z,101684.63
2023-04-08T20:52:00.796Z,101693.38
2023-04-08T20:54:27.123Z,101687.28
2023-04-08T20:56:53.420Z,101686.22
2023-04-08T20:59:19.741Z,101684.47
2023-04-08T21:01:46.173Z,101692.44
2023-04-08T21:04:12.533Z,101692.22
2023-04-08T21:06:38.844Z,101688.81
2023-04-08T21:09:05.167Z,101696.19
2023-04-08T21:11:31.480Z,101694.75
2023-04-08T21:13:57.799Z,101694.53
2023-04-08T21:16:24.137Z,101696.41
2023-04-08T21:18:50.690Z,101684.59
2023-04-08T21:21:17.212Z,101682.69
2023-04-08T21:23:43.513Z,101684.50
2023-04-08T21:26:11.120Z,101687.19
2023-04-08T21:28:37.474Z,101687.28
2023-04-08T21:31:13.520Z,101693.94
2023-04-08T21:33:40.077Z,101690.81
2023-04-08T21:36:06.655Z,101699.53
2023-04-08T21:38:33.676Z,101694.88
2023-04-08T21:41:00.238Z,101697.41
2023-04-08T21:43:26.646Z,101695.03
2023-04-08T21:45:53.832Z,101698.44
2023-04-08T21:48:20.420Z,101704.47
2023-04-08T21:50:47.173Z,101694.88
2023-04-08T21:53:13.496Z,101705.59
2023-04-08T21:55:39.806Z,101693.56
2023-04-08T21:58:06.111Z,101703.75
2023-04-08T22:00:32.414Z,101698.22
2023-04-08T22:02:58.984Z,101697.47
2023-04-08T22:05:25.480Z,101700.63
2023-04-08T22:07:51.789Z,101701.44
2023-04-08T22:10:18.166Z,101693.16
2023-04-08T22:12:44.468Z,101696.56
2023-04-08T22:15:11.099Z,101697.31
2023-04-08T22:17:37.410Z,101691.50
2023-04-08T22:20:03.993Z,101687.94
2023-04-08T22:22:30.320Z,101687.84
2023-04-08T22:24:56.630Z,101685.16
2023-04-08T22:27:22.917Z,101692.56
2023-04-08T22:29:49.251Z,101693.19
2023-04-08T22:32:15.604Z,101691.69
2023-04-08T22:34:41.931Z,101694.22
2023-04-08T22:37:08.266Z,101695.03
2023-04-08T22:39:34.584Z,101692.50
2023-04-08T22:42:00.946Z,101693.94
2023-04-08T22:44:27.254Z,101697.06
2023-04-08T22:46:53.541Z,101695.84
2023-04-08T22:49:19.847Z,101691.00
2023-04-08T22:51:46.162Z,101694.97
2023-04-08T22:54:12.466Z,101692.94
2023-04-08T22:56:38.797Z,101688.69
2023-04-08T22:59:05.166Z,101690.19
2023-04-08T23:01:31.627Z,101690.63
2023-04-08T23:03:58.024Z,101692.47
2023-04-08T23:06:24.519Z,101690.00
2023-04-08T23:08:51.060Z,101692.09
2023-04-08T23:11:17.639Z,101688.22
2023-04-08T23:13:43.939Z,101689.72
2023-04-08T23:16:10.546Z,101690.09
2023-04-08T23:18:36.943Z,101689.31
2023-04-08T23:21:03.292Z,101691.19
2023-04-08T23:23:29.601Z,101692.88
2023-04-08T23:25:56.048Z,101686.28
2023-04-08T23:28:22.784Z,101679.97
2023-04-08T23:30:49.120Z,101689.66
2023-04-08T23:33:15.483Z,101684.44
2023-04-08T23:35:41.959Z,101688.38
2023-04-08T23:38:08.294Z,101691.06
2023-04-08T23:40:34.609Z,101687.63
2023-04-08T23:43:00.903Z,101691.38
2023-04-08T23:45:27.191Z,101683.75
2023-04-08T23:47:53.562Z,101687.78
2023-04-08T23:50:19.862Z,101690.03
2023-04-08T23:52:46.163Z,101694.41
2023-04-08T23:55:12.457Z,101688.97
2023-04-08T23:57:41.842Z,101686.94
